createdAt,value
2023-01-29T00:01:38.790Z,101724.00
2023-01-29T00:04:12.211Z,101715.00
2023-01-29T00:06:45.991Z,101717.00
2023-01-29T00:09:20.704Z,101736.00
2023-01-29T00:11:53.962Z,101718.00
2023-01-29T00:14:29.179Z,101728.00
2023-01-29T00:17:03.171Z,101723.00
2023-01-29T00:19:37.754Z,101723.00
2023-01-29T00:22:11.721Z,101726.00
2023-01-29T00:24:45.443Z,101719.00
2023-01-29T00:27:19.551Z,101684.00
2023-01-29T00:30:08.351Z,101708.00
2023-01-29T00:32:42.555Z,101692.00
2023-01-29T00:35:16.650Z,101721.00
2023-01-29T00:37:50.599Z,101705.00
2023-01-29T00:40:27.332Z,101709.00
2023-01-29T00:43:18.358Z,101710.00
2023-01-29T00:45:53.669Z,101711.00
2023-01-29T00:48:27.405Z,101700.00
2023-01-29T00:51:00.959Z,101701.00
2023-01-29T00:53:34.403Z,101711.00
2023-01-29T00:56:08.768Z,101715.00
2023-01-29T00:58:42.333Z,101718.00
2023-01-29T01:01:17.837Z,101714.00
2023-01-29T01:03:50.765Z,101725.00
2023-01-29T01:06:24.099Z,101736.00
2023-01-29T01:09:14.620Z,101735.00
2023-01-29T01:11:48.451Z,101733.00
2023-01-29T01:14:22.760Z,101733.00
2023-01-29T01:16:58.261Z,101721.00
2023-01-29T01:19:32.009Z,101718.00
2023-01-29T01:22:07.045Z,101719.00
2023-01-29T01:24:41.008Z,101715.00
2023-01-29T01:27:15.325Z,101699.00
2023-01-29T01:29:49.053Z,101697.00
2023-01-29T01:32:23.875Z,101678.00
2023-01-29T01:34:57.706Z,101669.00
2023-01-29T01:37:30.960Z,101668.00
2023-01-29T01:40:05.824Z,101672.00
2023-01-29T01:42:39.707Z,101679.00
2023-01-29T01:45:26.085Z,101678.00
2023-01-29T01:48:07.050Z,101685.00
2023-01-29T01:50:47.060Z,101659.00
2023-01-29T01:53:28.118Z,101678.00
2023-01-29T01:56:11.196Z,101677.00
2023-01-29T01:58:52.170Z,101684.00
2023-01-29T02:01:29.157Z,101683.00
2023-01-29T02:04:27.342Z,101675.00
2023-01-29T02:07:21.536Z,101668.00
2023-01-29T02:10:03.187Z,101674.00
2023-01-29T02:12:39.523Z,101691.00
2023-01-29T02:15:14.760Z,101682.00
2023-01-29T02:17:48.430Z,101682.00
2023-01-29T02:20:28.358Z,101682.00
2023-01-29T02:23:47.004Z,101692.00
2023-01-29T02:27:05.317Z,101689.00
2023-01-29T02:29:56.359Z,101706.00
2023-01-29T02:32:42.160Z,101700.00
2023-01-29T02:35:29.156Z,101700.00
2023-01-29T02:38:18.540Z,101695.00
2023-01-29T02:40:57.805Z,101673.00
2023-01-29T02:43:45.649Z,101699.00
2023-01-29T02:46:32.216Z,101706.00
2023-01-29T02:49:18.672Z,101709.00
2023-01-29T02:52:03.639Z,101706.00
2023-01-29T02:54:54.527Z,101693.00
2023-01-29T02:57:36.275Z,101699.00
2023-01-29T03:00:17.849Z,101692.00
2023-01-29T03:03:01.373Z,101693.00
2023-01-29T03:05:45.602Z,101694.00
2023-01-29T03:08:37.318Z,101682.00
2023-01-29T03:11:14.216Z,101694.00
2023-01-29T03:13:54.200Z,101699.00
2023-01-29T03:16:34.562Z,101691.00
2023-01-29T03:19:17.664Z,101687.00
2023-01-29T03:22:00.529Z,101683.00
2023-01-29T03:25:00.482Z,101682.00
2023-01-29T03:27:57.947Z,101672.00
2023-01-29T03:30:54.326Z,101682.00
2023-01-29T03:33:32.808Z,101682.00
2023-01-29T03:36:16.037Z,101682.00
2023-01-29T03:38:49.767Z,101694.00
2023-01-29T03:41:30.822Z,101686.00
2023-01-29T03:44:17.655Z,101682.00
2023-01-29T03:47:00.034Z,101682.00
2023-01-29T03:49:49.167Z,101679.00
2023-01-29T03:52:35.282Z,101687.00
2023-01-29T03:55:18.703Z,101680.00
2023-01-29T03:58:00.462Z,101682.00
2023-01-29T04:00:43.093Z,101677.00
2023-01-29T04:03:23.642Z,101673.00
2023-01-29T04:06:10.623Z,101677.00
2023-01-29T04:08:53.829Z,101681.00
2023-01-29T04:11:30.801Z,101679.00
2023-01-29T04:14:05.108Z,101681.00
2023-01-29T04:16:43.450Z,101668.00
2023-01-29T04:19:18.252Z,101661.00
2023-01-29T04:21:59.652Z,101663.00
2023-01-29T04:24:36.084Z,101651.00
2023-01-29T04:27:28.689Z,101648.00
2023-01-29T04:30:18.863Z,101640.00
2023-01-29T04:33:07.887Z,101646.00
2023-01-29T04:36:06.148Z,101640.00
2023-01-29T04:39:00.546Z,101649.00
2023-01-29T04:41:44.581Z,101660.00
2023-01-29T04:44:24.764Z,101646.00
2023-01-29T04:47:10.473Z,101631.00
2023-01-29T04:49:50.733Z,101637.00
2023-01-29T04:52:34.036Z,101637.00
2023-01-29T04:55:16.583Z,101636.00
2023-01-29T04:58:05.465Z,101628.00
2023-01-29T05:00:43.612Z,101639.00
2023-01-29T05:03:18.821Z,101618.00
2023-01-29T05:05:55.433Z,101624.00
2023-01-29T05:08:33.822Z,101620.00
2023-01-29T05:11:08.010Z,101625.00
2023-01-29T05:13:45.028Z,101615.00
2023-01-29T05:16:25.244Z,101602.00
2023-01-29T05:18:58.927Z,101594.00
2023-01-29T05:21:34.309Z,101592.00
2023-01-29T05:24:11.579Z,101582.00
2023-01-29T05:27:06.171Z,101584.00
2023-01-29T05:29:46.639Z,101578.00
2023-01-29T05:32:20.769Z,101571.00
2023-01-29T05:34:54.861Z,101579.00
2023-01-29T05:37:28.383Z,101582.00
2023-01-29T05:40:02.194Z,101568.00
2023-01-29T05:42:36.084Z,101580.00
2023-01-29T05:45:12.684Z,101584.00
2023-01-29T05:47:47.198Z,101579.00
2023-01-29T05:50:20.798Z,101583.00
2023-01-29T05:52:58.695Z,101563.00
2023-01-29T05:55:32.345Z,101590.00
2023-01-29T05:58:06.566Z,101601.00
2023-01-29T06:00:42.858Z,101607.00
2023-01-29T06:03:17.053Z,101604.00
2023-01-29T06:05:50.821Z,101607.00
2023-01-29T06:08:24.121Z,101614.00
2023-01-29T06:10:57.880Z,101624.00
2023-01-29T06:13:31.520Z,101628.00
2023-01-29T06:16:09.730Z,101624.00
2023-01-29T06:18:45.124Z,101640.00
2023-01-29T06:21:20.114Z,101639.00
2023-01-29T06:23:54.850Z,101627.00
2023-01-29T06:26:29.022Z,101639.00
2023-01-29T06:29:02.833Z,101642.00
2023-01-29T06:31:39.455Z,101648.00
2023-01-29T06:34:13.422Z,101652.00
2023-01-29T06:36:46.670Z,101642.00
2023-01-29T06:39:19.939Z,101644.00
2023-01-29T06:41:53.625Z,101627.00
2023-01-29T06:44:26.893Z,101600.00
2023-01-29T06:47:02.761Z,101626.00
2023-01-29T06:49:37.409Z,101631.00
2023-01-29T06:52:11.289Z,101629.00
2023-01-29T06:54:44.614Z,101637.00
2023-01-29T06:57:18.260Z,101638.00
2023-01-29T06:59:51.483Z,101641.00
2023-01-29T07:02:26.325Z,101632.00
2023-01-29T07:05:03.166Z,101625.00
2023-01-29T07:07:37.947Z,101595.00
2023-01-29T07:10:12.541Z,101626.00
2023-01-29T07:12:47.583Z,101628.00
2023-01-29T07:15:21.434Z,101605.00
2023-01-29T07:18:02.718Z,101626.00
2023-01-29T07:20:36.691Z,101634.00
2023-01-29T07:23:14.562Z,101618.00
2023-01-29T07:25:50.176Z,101616.00
2023-01-29T07:28:23.465Z,101618.00
2023-01-29T07:30:59.095Z,101616.00
2023-01-29T07:33:34.638Z,101620.00
2023-01-29T07:36:10.628Z,101615.00
2023-01-29T07:38:46.609Z,101619.00
2023-01-29T07:41:20.516Z,101627.00
2023-01-29T07:43:54.036Z,101635.00
2023-01-29T07:46:27.776Z,101612.00
2023-01-29T07:49:02.892Z,101600.00
2023-01-29T07:51:37.315Z,101604.00
2023-01-29T07:54:11.171Z,101609.00
2023-01-29T07:56:45.055Z,101618.00
2023-01-29T07:59:18.489Z,101577.00
2023-01-29T08:01:52.155Z,101602.00
2023-01-29T08:04:27.678Z,101604.00
2023-01-29T08:07:01.701Z,101607.00
2023-01-29T08:09:35.246Z,101601.00
2023-01-29T08:12:09.248Z,101607.00
2023-01-29T08:14:42.664Z,101615.00
2023-01-29T08:17:16.500Z,101606.00
2023-01-29T08:19:53.495Z,101604.00
2023-01-29T08:22:27.430Z,101619.00
2023-01-29T08:25:08.195Z,101607.00
2023-01-29T08:27:42.972Z,101613.00
2023-01-29T08:30:18.546Z,101613.00
2023-01-29T08:32:52.568Z,101609.00
2023-01-29T08:35:28.112Z,101613.00
2023-01-29T08:38:04.211Z,101603.00
2023-01-29T08:40:37.878Z,101599.00
2023-01-29T08:43:14.015Z,101590.00
2023-01-29T08:45:49.029Z,101601.00
2023-01-29T08:48:24.351Z,101582.00
2023-01-29T08:51:00.998Z,101585.00
2023-01-29T08:53:34.804Z,101574.00
2023-01-29T08:56:09.515Z,101575.00
2023-01-29T08:58:43.064Z,101574.00
2023-01-29T09:01:16.786Z,101579.00
2023-01-29T09:03:50.985Z,101587.00
2023-01-29T09:06:26.312Z,101577.00
2023-01-29T09:08:59.691Z,101579.00
2023-01-29T09:11:33.513Z,101583.00
2023-01-29T09:14:07.389Z,101568.00
2023-01-29T09:16:41.094Z,101574.00
2023-01-29T09:19:14.531Z,101560.00
2023-01-29T09:21:49.600Z,101566.00
2023-01-29T09:24:24.580Z,101555.00
2023-01-29T09:26:58.255Z,101546.00
2023-01-29T09:29:33.040Z,101542.00
2023-01-29T09:32:08.654Z,101542.00
2023-01-29T09:34:42.184Z,101549.00
2023-01-29T09:37:17.615Z,101538.00
2023-01-29T09:39:51.475Z,101546.00
2023-01-29T09:42:30.242Z,101543.00
2023-01-29T09:45:13.629Z,101542.00
2023-01-29T09:47:48.821Z,101539.00
2023-01-29T09:50:39.927Z,101542.00
2023-01-29T09:53:23.329Z,101544.00
2023-01-29T09:56:05.737Z,101545.00
2023-01-29T09:58:41.867Z,101528.00
2023-01-29T10:01:29.023Z,101537.00
2023-01-29T10:04:41.889Z,101547.00
2023-01-29T10:07:46.483Z,101545.00
2023-01-29T10:10:50.764Z,101540.00
2023-01-29T10:13:38.508Z,101538.00
2023-01-29T10:16:33.296Z,101533.00
2023-01-29T10:19:47.384Z,101553.00
2023-01-29T10:22:52.037Z,101546.00
2023-01-29T10:25:26.055Z,101542.00
2023-01-29T10:28:02.790Z,101537.00
2023-01-29T10:30:44.336Z,101543.00
2023-01-29T10:33:33.024Z,101539.00
2023-01-29T10:36:18.196Z,101523.00
2023-01-29T10:38:53.067Z,101518.00
2023-01-29T10:41:50.597Z,101513.00
2023-01-29T10:44:45.938Z,101505.00
2023-01-29T10:47:57.371Z,101512.00
2023-01-29T10:50:50.578Z,101511.00
2023-01-29T10:53:42.196Z,101489.00
2023-01-29T10:56:43.020Z,101501.00
2023-01-29T10:59:42.701Z,101508.00
2023-01-29T11:02:19.694Z,101490.00
2023-01-29T11:04:53.538Z,101492.00
2023-01-29T11:07:27.812Z,101481.00
2023-01-29T11:10:12.742Z,101466.00
2023-01-29T11:12:53.438Z,101474.00
2023-01-29T11:15:34.188Z,101468.00
2023-01-29T11:18:14.381Z,101467.00
2023-01-29T11:21:01.234Z,101454.00
2023-01-29T11:23:35.975Z,101457.00
2023-01-29T11:26:15.262Z,101464.00
2023-01-29T11:28:51.992Z,101459.00
2023-01-29T11:31:31.024Z,101453.00
2023-01-29T11:34:15.410Z,101446.00
2023-01-29T11:36:58.805Z,101447.00
2023-01-29T11:39:34.230Z,101450.00
2023-01-29T11:42:12.968Z,101445.00
2023-01-29T11:44:49.095Z,101447.00
2023-01-29T11:47:28.850Z,101423.00
2023-01-29T11:50:04.779Z,101439.00
2023-01-29T11:52:42.531Z,101423.00
2023-01-29T11:55:22.125Z,101417.00
2023-01-29T11:58:04.306Z,101413.00
2023-01-29T12:00:43.160Z,101408.00
2023-01-29T12:03:25.207Z,101404.00
2023-01-29T12:06:04.184Z,101400.00
2023-01-29T12:08:40.878Z,101374.00
2023-01-29T12:11:25.230Z,101390.00
2023-01-29T12:14:01.832Z,101376.00
2023-01-29T12:16:47.487Z,101359.00
2023-01-29T12:19:36.219Z,101352.00
2023-01-29T12:22:19.749Z,101350.00
2023-01-29T12:25:00.815Z,101341.00
2023-01-29T12:27:45.140Z,101330.00
2023-01-29T12:30:27.588Z,101322.00
2023-01-29T12:33:13.088Z,101312.00
2023-01-29T12:36:00.042Z,101306.00
2023-01-29T12:38:33.658Z,101295.00
2023-01-29T12:41:21.722Z,101297.00
2023-01-29T12:44:02.835Z,101292.00
2023-01-29T12:46:45.096Z,101288.00
2023-01-29T12:49:25.469Z,101285.00
2023-01-29T12:52:10.842Z,101281.00
2023-01-29T12:54:53.734Z,101276.00
2023-01-29T12:57:40.463Z,101285.00
2023-01-29T13:00:20.368Z,101279.00
2023-01-29T13:03:02.098Z,101287.00
2023-01-29T13:05:42.667Z,101288.00
2023-01-29T13:08:23.529Z,101282.00
2023-01-29T13:11:05.963Z,101268.00
2023-01-29T13:13:54.141Z,101273.00
2023-01-29T13:16:34.753Z,101273.00
2023-01-29T13:19:27.174Z,101278.00
2023-01-29T13:22:12.532Z,101268.00
2023-01-29T13:25:02.336Z,101271.00
2023-01-29T13:27:39.111Z,101279.00
2023-01-29T13:30:28.927Z,101277.00
2023-01-29T13:33:10.780Z,101281.00
2023-01-29T13:35:47.420Z,101275.00
2023-01-29T13:38:26.673Z,101271.00
2023-01-29T13:41:06.059Z,101272.00
2023-01-29T13:43:43.511Z,101263.00
2023-01-29T13:46:21.665Z,101280.00
2023-01-29T13:48:58.276Z,101291.00
2023-01-29T13:51:38.216Z,101287.00
2023-01-29T13:54:24.536Z,101276.00
2023-01-29T13:57:50.025Z,101276.00
2023-01-29T14:01:00.996Z,101277.00
2023-01-29T14:04:10.133Z,101272.00
2023-01-29T14:06:50.665Z,101259.00
2023-01-29T14:10:17.994Z,101262.00
2023-01-29T14:13:18.157Z,101251.00
2023-01-29T14:16:35.074Z,101253.00
2023-01-29T14:19:08.740Z,101236.00
2023-01-29T14:21:43.020Z,101247.00
2023-01-29T14:24:22.862Z,101244.00
2023-01-29T14:26:57.590Z,101253.00
2023-01-29T14:29:42.689Z,101250.00
2023-01-29T14:32:22.387Z,101248.00
2023-01-29T14:35:02.449Z,101250.00
2023-01-29T14:37:41.355Z,101239.00
2023-01-29T14:40:22.875Z,101232.00
2023-01-29T14:43:02.612Z,101235.00
2023-01-29T14:45:41.904Z,101243.00
2023-01-29T14:48:49.812Z,101236.00
2023-01-29T14:51:28.300Z,101236.00
2023-01-29T14:54:07.729Z,101241.00
2023-01-29T14:56:52.704Z,101237.00
2023-01-29T14:59:37.833Z,101237.00
2023-01-29T15:02:22.857Z,101226.00
2023-01-29T15:05:01.154Z,101228.00
2023-01-29T15:07:43.040Z,101214.00
2023-01-29T15:10:24.059Z,101215.00
2023-01-29T15:13:05.962Z,101209.00
2023-01-29T15:15:47.956Z,101213.00
2023-01-29T15:18:34.827Z,101214.00
2023-01-29T15:21:14.981Z,101205.00
2023-01-29T15:23:49.879Z,101207.00
2023-01-29T15:26:27.254Z,101202.00
2023-01-29T15:29:04.706Z,101213.00
2023-01-29T15:31:42.340Z,101186.00
2023-01-29T15:34:17.391Z,101202.00
2023-01-29T15:36:51.651Z,101196.00
2023-01-29T15:39:27.869Z,101207.00
2023-01-29T15:42:21.758Z,101198.00
2023-01-29T15:44:55.680Z,101205.00
2023-01-29T15:47:34.016Z,101201.00
2023-01-29T15:50:15.459Z,101204.00
2023-01-29T15:52:53.179Z,101189.00
2023-01-29T15:55:28.416Z,101195.00
2023-01-29T15:58:02.423Z,101193.00
2023-01-29T16:00:36.330Z,101189.00
2023-01-29T16:03:16.701Z,101192.00
2023-01-29T16:05:53.120Z,101185.00
2023-01-29T16:08:29.023Z,101191.00
2023-01-29T16:11:06.527Z,101176.00
2023-01-29T16:13:44.596Z,101174.00
2023-01-29T16:16:26.372Z,101176.00
2023-01-29T16:19:15.416Z,101174.00
2023-01-29T16:22:00.359Z,101175.00
2023-01-29T16:24:39.148Z,101159.00
2023-01-29T16:27:15.889Z,101152.00
2023-01-29T16:29:49.777Z,101155.00
2023-01-29T16:32:23.431Z,101147.00
2023-01-29T16:35:00.943Z,101144.00
2023-01-29T16:37:37.689Z,101143.00
2023-01-29T16:40:18.549Z,101138.00
2023-01-29T16:43:22.815Z,101124.00
2023-01-29T16:46:22.855Z,101132.00
2023-01-29T16:48:56.593Z,101130.00
2023-01-29T16:51:32.871Z,101128.00
2023-01-29T16:54:18.471Z,101116.00
2023-01-29T16:56:56.056Z,101123.00
2023-01-29T16:59:38.967Z,101133.00
2023-01-29T17:02:26.554Z,101120.00
2023-01-29T17:05:05.404Z,101118.00
2023-01-29T17:07:40.276Z,101105.00
2023-01-29T17:10:21.156Z,101114.00
2023-01-29T17:13:00.138Z,101118.00
2023-01-29T17:15:47.321Z,101116.00
2023-01-29T17:18:26.577Z,101114.00
2023-01-29T17:21:00.595Z,101107.00
2023-01-29T17:23:34.525Z,101102.00
2023-01-29T17:26:13.067Z,101102.00
2023-01-29T17:28:47.551Z,101092.00
2023-01-29T17:31:21.365Z,101103.00
2023-01-29T17:33:54.827Z,101101.00
2023-01-29T17:36:28.513Z,101099.00
2023-01-29T17:39:02.052Z,101093.00
2023-01-29T17:41:38.433Z,101092.00
2023-01-29T17:44:12.074Z,101088.00
2023-01-29T17:46:47.518Z,101090.00
2023-01-29T17:49:27.536Z,101093.00
2023-01-29T17:52:01.360Z,101096.00
2023-01-29T17:54:35.079Z,101103.00
2023-01-29T17:57:15.151Z,101085.00
2023-01-29T17:59:49.180Z,101089.00
2023-01-29T18:02:29.748Z,101078.00
2023-01-29T18:05:03.428Z,101085.00
2023-01-29T18:07:38.791Z,101079.00
2023-01-29T18:10:17.931Z,101063.00
2023-01-29T18:12:52.907Z,101060.00
2023-01-29T18:15:27.042Z,101056.00
2023-01-29T18:18:01.086Z,101065.00
2023-01-29T18:20:38.550Z,101042.00
2023-01-29T18:23:12.579Z,101045.00
2023-01-29T18:25:46.512Z,101026.00
2023-01-29T18:28:21.239Z,101022.00
2023-01-29T18:30:55.592Z,101013.00
2023-01-29T18:33:29.212Z,101037.00
2023-01-29T18:36:04.875Z,101025.00
2023-01-29T18:38:38.529Z,101049.00
2023-01-29T18:41:12.698Z,101018.00
2023-01-29T18:43:47.757Z,101023.00
2023-01-29T18:46:24.369Z,101013.00
2023-01-29T18:48:58.027Z,101009.00
2023-01-29T18:51:31.834Z,101021.00
2023-01-29T18:54:05.831Z,101001.00
2023-01-29T18:57:13.857Z,101014.00
2023-01-29T18:59:34.981Z,100992.00
2023-01-29T19:02:08.970Z,101002.00
2023-01-29T19:04:42.550Z,101000.00
2023-01-29T19:07:17.147Z,101006.00
2023-01-29T19:09:50.676Z,100974.00
2023-01-29T19:12:25.198Z,100991.00
2023-01-29T19:15:00.849Z,100984.00
2023-01-29T19:17:34.909Z,100985.00
2023-01-29T19:20:10.121Z,100978.00
2023-01-29T19:22:44.067Z,100985.00
2023-01-29T19:25:19.674Z,100979.00
2023-01-29T19:27:53.775Z,100969.00
2023-01-29T19:30:29.046Z,100966.00
2023-01-29T19:33:02.976Z,100969.00
2023-01-29T19:35:36.826Z,100953.00
2023-01-29T19:38:10.474Z,100932.00
2023-01-29T19:40:44.167Z,100935.00
2023-01-29T19:43:18.726Z,100936.00
2023-01-29T19:45:59.840Z,100928.00
2023-01-29T19:48:33.562Z,100919.00
2023-01-29T19:51:13.191Z,100918.00
2023-01-29T19:53:46.874Z,100913.00
2023-01-29T19:56:20.887Z,100905.00
2023-01-29T19:58:57.341Z,100896.00
2023-01-29T20:01:36.226Z,100897.00
2023-01-29T20:04:10.074Z,100903.00
2023-01-29T20:06:43.660Z,100892.00
2023-01-29T20:09:17.973Z,100885.00
2023-01-29T20:11:51.654Z,100879.00
2023-01-29T20:14:25.282Z,100852.00
2023-01-29T20:17:00.360Z,100837.00
2023-01-29T20:19:35.241Z,100859.00
2023-01-29T20:22:08.923Z,100855.00
2023-01-29T20:24:43.688Z,100857.00
2023-01-29T20:27:17.601Z,100853.00
2023-01-29T20:29:52.849Z,100844.00
2023-01-29T20:32:28.393Z,100825.00
2023-01-29T20:35:02.103Z,100836.00
2023-01-29T20:37:36.051Z,100830.00
2023-01-29T20:40:11.908Z,100818.00
2023-01-29T20:42:46.596Z,100819.00
2023-01-29T20:45:21.364Z,100811.00
2023-01-29T20:47:56.346Z,100812.00
2023-01-29T20:50:30.908Z,100825.00
2023-01-29T20:53:04.609Z,100809.00
2023-01-29T20:55:39.481Z,100800.00
2023-01-29T20:58:14.468Z,100796.00
2023-01-29T21:00:49.688Z,100810.00
2023-01-29T21:03:24.708Z,100822.00
2023-01-29T21:05:59.191Z,100809.00
2023-01-29T21:08:33.399Z,100822.00
2023-01-29T21:11:09.519Z,100814.00
2023-01-29T21:13:44.387Z,100846.00
2023-01-29T21:16:18.549Z,100831.00
2023-01-29T21:18:57.780Z,100807.00
2023-01-29T21:21:31.031Z,100816.00
2023-01-29T21:24:04.930Z,100813.00
2023-01-29T21:26:39.701Z,100792.00
2023-01-29T21:29:13.824Z,100774.00
2023-01-29T21:31:47.999Z,100788.00
2023-01-29T21:34:24.281Z,100793.00
2023-01-29T21:36:58.033Z,100801.00
2023-01-29T21:39:31.870Z,100812.00
2023-01-29T21:42:23.786Z,100813.00
2023-01-29T21:44:57.193Z,100813.00
2023-01-29T21:47:31.099Z,100793.00
2023-01-29T21:50:07.366Z,100809.00
2023-01-29T21:52:40.807Z,100803.00
2023-01-29T21:55:14.251Z,100822.00
2023-01-29T21:57:49.200Z,100808.00
2023-01-29T22:00:23.120Z,100834.00
2023-01-29T22:02:57.869Z,100844.00
2023-01-29T22:05:33.291Z,100818.00
2023-01-29T22:08:06.857Z,100814.00
2023-01-29T22:10:40.309Z,100810.00
2023-01-29T22:13:13.833Z,100806.00
2023-01-29T22:15:47.644Z,100815.00
2023-01-29T22:18:21.296Z,100804.00
2023-01-29T22:20:57.506Z,100782.00
2023-01-29T22:23:33.486Z,100803.00
2023-01-29T22:26:09.140Z,100802.00
2023-01-29T22:28:42.920Z,100781.00
2023-01-29T22:31:16.590Z,100804.00
2023-01-29T22:33:50.444Z,100787.00
2023-01-29T22:36:25.497Z,100770.00
2023-01-29T22:38:59.636Z,100781.00
2023-01-29T22:41:34.024Z,100787.00
2023-01-29T22:44:07.590Z,100782.00
2023-01-29T22:46:41.270Z,100774.00
2023-01-29T22:49:16.072Z,100778.00
2023-01-29T22:52:10.189Z,100772.00
2023-01-29T22:54:45.155Z,100751.00
2023-01-29T22:57:19.638Z,100718.00
2023-01-29T22:59:54.037Z,100736.00
2023-01-29T23:02:27.447Z,100720.00
2023-01-29T23:05:00.915Z,100684.00
2023-01-29T23:07:36.190Z,100680.00
2023-01-29T23:10:12.985Z,100655.00
2023-01-29T23:12:48.717Z,100650.00
2023-01-29T23:15:22.417Z,100649.00
2023-01-29T23:17:55.643Z,100609.00
2023-01-29T23:20:29.517Z,100609.00
2023-01-29T23:23:04.650Z,100617.00
2023-01-29T23:25:55.700Z,100626.00
2023-01-29T23:28:28.964Z,100671.00
2023-01-29T23:31:02.678Z,100635.00
2023-01-29T23:33:36.496Z,100652.00
2023-01-29T23:36:11.457Z,100643.00
2023-01-29T23:38:46.309Z,100646.00
2023-01-29T23:41:19.785Z,100635.00
2023-01-29T23:43:54.125Z,100628.00
2023-01-29T23:46:27.788Z,100639.00
2023-01-29T23:49:01.806Z,100627.00
2023-01-29T23:51:35.192Z,100627.00
2023-01-29T23:54:10.236Z,100606.00
2023-01-29T23:56:44.553Z,100597.00
2023-01-29T23:59:18.766Z,100592.00
